Time;durP1;ratioP1;P1;durP2;ratioP2;P2;SDS_P1;SDS_P2;PMS_P1;PMS_P2;Temp;Humidity;BMP_temperature;BMP_pressure;BME280_temperature;BME280_humidity;BME280_pressure;Samples;Min_cycle;Max_cycle;Signal;HPM_P1;HPM_P2
2022/12/16 00:01:14;;;;;;;;;;;;;;;;;;5021710;28;20473;-49
2022/12/16 00:03:40;;;;;;;;;;;;;;;;;;5024067;28;20004;-47
2022/12/16 00:06:06;;;;;;;;;;;;;;;;;;5027700;28;20019;-51
2022/12/16 00:08:32;;;;;;;;;;;;;;;;;;5031512;28;19913;-47
2022/12/16 00:10:57;;;;;;;;;;;;;;;;;;5031858;28;19959;-49
2022/12/16 00:13:23;;;;;;;;;;;;;;;;;;5031384;28;20328;-50
2022/12/16 00:15:49;;;;;;;;;;;;;;;;;;5030034;28;20431;-48
2022/12/16 00:18:18;;;;;;;;;;;;;;;;;;5020537;28;20028;-48
2022/12/16 00:20:44;;;;;;;;;;;;;;;;;;5025228;28;20344;-49
2022/12/16 00:23:10;;;;;;;;;;;;;;;;;;5025172;28;20101;-48
2022/12/16 00:25:36;;;;;;;;;;;;;;;;;;5030985;28;20300;-47
2022/12/16 00:28:02;;;;;;;;;;;;;;;;;;5030353;28;19913;-47
2022/12/16 00:30:27;;;;;;;;;;;;;;;;;;5024885;28;19917;-48
2022/12/16 00:32:53;;;;;;;;;;;;;;;;;;5030850;28;19939;-48
2022/12/16 00:35:19;;;;;;;;;;;;;;;;;;5030953;28;20290;-48
2022/12/16 00:37:45;;;;;;;;;;;;;;;;;;5016142;28;19933;-49
2022/12/16 00:40:11;;;;;;;;;;;;;;;;;;5028011;28;19960;-47
2022/12/16 00:42:37;;;;;;;;;;;;;;;;;;5012122;28;19979;-49
2022/12/16 00:45:03;;;;;;;;;;;;;;;;;;5021829;28;19960;-47
2022/12/16 00:47:29;;;;;;;;;;;;;;;;;;5021382;28;19913;-48
2022/12/16 00:49:55;;;;;;;;;;;;;;;;;;5025068;28;19920;-47
2022/12/16 00:52:21;;;;;;;;;;;;;;;;;;5014342;28;19913;-48
2022/12/16 00:54:47;;;;;;;;;;;;;;;;;;5023042;28;19967;-48
2022/12/16 00:57:13;;;;;;;;;;;;;;;;;;5011896;28;19941;-47
2022/12/16 00:59:39;;;;;;;;;;;;;;;;;;5020079;28;19920;-47
2022/12/16 01:02:04;;;;;;;;;;;;;;;;;;5032581;28;19924;-48
2022/12/16 01:04:30;;;;;;;;;;;;;;;;;;5033376;28;20262;-50
2022/12/16 01:06:56;;;;;;;;;;;;;;;;;;5034961;28;19917;-48
2022/12/16 01:09:22;;;;;;;;;;;;;;;;;;5034706;28;19913;-48
2022/12/16 01:11:48;;;;;;;;;;;;;;;;;;5034950;28;20007;-52
2022/12/16 01:14:14;;;;;;;;;;;;;;;;;;5034781;28;19963;-47
2022/12/16 01:16:40;;;;;;;;;;;;;;;;;;5034309;28;19924;-47
2022/12/16 01:19:06;;;;;;;;;;;;;;;;;;5032957;28;19917;-50
2022/12/16 01:21:32;;;;;;;;;;;;;;;;;;5025436;28;19920;-49
2022/12/16 01:23:58;;;;;;;;;;;;;;;;;;5035064;28;20286;-48
2022/12/16 01:26:24;;;;;;;;;;;;;;;;;;5034747;28;19913;-50
2022/12/16 01:28:50;;;;;;;;;;;;;;;;;;5034247;28;19921;-48
2022/12/16 01:31:16;;;;;;;;;;;;;;;;;;5034618;28;19920;-48
2022/12/16 01:33:41;;;;;;;;;;;;;;;;;;5034561;28;20008;-47
2022/12/16 01:36:07;;;;;;;;;;;;;;;;;;5034215;28;20385;-47
2022/12/16 01:38:33;;;;;;;;;;;;;;;;;;5034051;28;19917;-48
2022/12/16 01:40:59;;;;;;;;;;;;;;;;;;5034136;28;20019;-47
2022/12/16 01:43:25;;;;;;;;;;;;;;;;;;5034435;28;19913;-48
2022/12/16 01:45:51;;;;;;;;;;;;;;;;;;5034132;28;19917;-47
2022/12/16 01:48:17;;;;;;;;;;;;;;;;;;5032336;28;20262;-49
2022/12/16 01:50:43;;;;;;;;;;;;;;;;;;5034056;28;19920;-47
2022/12/16 01:53:09;;;;;;;;;;;;;;;;;;5033980;28;19967;-48
2022/12/16 01:55:35;;;;;;;;;;;;;;;;;;5033851;28;19967;-48
2022/12/16 01:58:01;;;;;;;;;;;;;;;;;;5034259;28;19967;-47
2022/12/16 02:00:27;;;;;;;;;;;;;;;;;;5053329;22;19928;-56
2022/12/16 02:02:53;;;;;;;;;;;;;;;;;;5066731;28;19935;-58
2022/12/16 02:05:22;;;;;;;;;;;;;;;;;;5059627;28;20372;-56
2022/12/16 02:07:47;;;;;;;;;;;;;;;;;;5064687;28;19923;-57
2022/12/16 02:10:13;;;;;;;;;;;;;;;;;;5065223;28;20010;-57
2022/12/16 02:12:39;;;;;;;;;;;;;;;;;;5054334;28;20331;-57
2022/12/16 02:15:05;;;;;;;;;;;;;;;;;;5053362;28;20003;-54
2022/12/16 02:17:31;;;;;;;;;;;;;;;;;;5053796;28;20018;-58
2022/12/16 02:19:57;;;;;;;;;;;;;;;;;;5053722;28;20074;-57
2022/12/16 02:22:23;;;;;;;;;;;;;;;;;;5053782;28;19916;-56
2022/12/16 02:24:49;;;;;;;;;;;;;;;;;;5053854;28;19916;-57
2022/12/16 02:27:17;;;;;;;;;;;;;;;;;;5053611;28;19916;-55
2022/12/16 02:29:43;;;;;;;;;;;;;;;;;;5053556;28;19954;-58
2022/12/16 02:32:09;;;;;;;;;;;;;;;;;;5053939;28;19904;-58
2022/12/16 02:34:35;;;;;;;;;;;;;;;;;;5053536;28;20357;-58
2022/12/16 02:37:01;;;;;;;;;;;;;;;;;;5053468;28;19913;-55
2022/12/16 02:39:27;;;;;;;;;;;;;;;;;;5053391;28;19913;-57
2022/12/16 02:41:53;;;;;;;;;;;;;;;;;;5058358;28;19912;-58
2022/12/16 02:44:19;;;;;;;;;;;;;;;;;;5063896;28;20269;-58
2022/12/16 02:46:45;;;;;;;;;;;;;;;;;;5067962;28;19958;-55
2022/12/16 02:49:11;;;;;;;;;;;;;;;;;;5069996;28;19952;-56
2022/12/16 02:51:37;;;;;;;;;;;;;;;;;;5054244;28;19968;-58
2022/12/16 02:54:03;;;;;;;;;;;;;;;;;;5056212;28;19958;-56
2022/12/16 02:56:29;;;;;;;;;;;;;;;;;;5071323;28;19918;-57
2022/12/16 02:58:55;;;;;;;;;;;;;;;;;;5056619;28;19908;-55
2022/12/16 03:01:21;;;;;;;;;;;;;;;;;;5057778;28;20304;-57
2022/12/16 03:03:47;;;;;;;;;;;;;;;;;;5061855;28;19912;-55
2022/12/16 03:06:13;;;;;;;;;;;;;;;;;;5054317;28;19913;-56
2022/12/16 03:08:39;;;;;;;;;;;;;;;;;;5053881;28;19909;-55
2022/12/16 03:11:05;;;;;;;;;;;;;;;;;;5061152;28;19912;-58
2022/12/16 03:13:30;;;;;;;;;;;;;;;;;;5058001;28;20296;-53
2022/12/16 03:15:56;;;;;;;;;;;;;;;;;;5068681;28;19920;-57
2022/12/16 03:18:22;;;;;;;;;;;;;;;;;;5067677;28;19919;-58
2022/12/16 03:20:48;;;;;;;;;;;;;;;;;;5062114;28;19912;-55
2022/12/16 03:23:15;;;;;;;;;;;;;;;;;;5072287;28;20288;-57
2022/12/16 03:25:41;;;;;;;;;;;;;;;;;;5053662;28;19912;-57
2022/12/16 03:28:07;;;;;;;;;;;;;;;;;;5062891;28;20491;-55
2022/12/16 03:30:32;;;;;;;;;;;;;;;;;;5066206;28;19936;-56
2022/12/16 03:32:58;;;;;;;;;;;;;;;;;;5052673;28;19913;-55
2022/12/16 03:35:24;;;;;;;;;;;;;;;;;;5063490;28;20284;-56
2022/12/16 03:37:50;;;;;;;;;;;;;;;;;;5065107;28;19924;-56
2022/12/16 03:40:16;;;;;;;;;;;;;;;;;;5058204;28;19919;-55
2022/12/16 03:42:42;;;;;;;;;;;;;;;;;;5063429;28;19919;-58
2022/12/16 03:45:08;;;;;;;;;;;;;;;;;;5055772;28;20403;-55
2022/12/16 03:47:34;;;;;;;;;;;;;;;;;;5056332;28;19967;-55
2022/12/16 03:50:00;;;;;;;;;;;;;;;;;;5062889;28;19935;-58
2022/12/16 03:52:26;;;;;;;;;;;;;;;;;;5053041;28;19952;-57
2022/12/16 03:54:52;;;;;;;;;;;;;;;;;;5064178;28;19959;-56
2022/12/16 03:57:18;;;;;;;;;;;;;;;;;;5052138;28;20380;-57
2022/12/16 03:59:44;;;;;;;;;;;;;;;;;;5053208;28;19913;-58
2022/12/16 04:02:09;;;;;;;;;;;;;;;;;;5052574;28;19940;-57
2022/12/16 04:04:35;;;;;;;;;;;;;;;;;;5056016;28;19920;-56
2022/12/16 04:07:20;;;;;;;;;;;;;;;;;;5055337;28;19912;-57
2022/12/16 04:09:45;;;;;;;;;;;;;;;;;;5032596;28;19955;-57
2022/12/16 04:25:55;;;;;;;;;;;;;;;;;;5052139;28;19927;-57
2022/12/16 04:28:21;;;;;;;;;;;;;;;;;;5051276;28;19917;-56
2022/12/16 04:30:47;;;;;;;;;;;;;;;;;;5058949;28;20365;-57
